sensor_id;sensor_type;location;lat;lon;timestamp;pressure;altitude;pressure_sealevel;temperature
70123;BMP280;57489;37.404;24.920;2024-02-23T00:04:39;100709.19;;;19.29
70123;BMP280;57489;37.404;24.920;2024-02-23T00:09:43;100712.47;;;19.26
70123;BMP280;57489;37.404;24.920;2024-02-23T00:14:46;100711.81;;;19.20
70123;BMP280;57489;37.404;24.920;2024-02-23T00:19:47;100711.28;;;19.18
70123;BMP280;57489;37.404;24.920;2024-02-23T00:24:51;100708.34;;;19.20
70123;BMP280;57489;37.404;24.920;2024-02-23T00:29:53;100692.88;;;19.22
70123;BMP280;57489;37.404;24.920;2024-02-23T00:34:57;100680.28;;;19.14
70123;BMP280;57489;37.404;24.920;2024-02-23T00:40:00;100678.91;;;19.16
70123;BMP280;57489;37.404;24.920;2024-02-23T00:45:05;100673.41;;;19.13
70123;BMP280;57489;37.404;24.920;2024-02-23T00:50:08;100670.84;;;19.07
70123;BMP280;57489;37.404;24.920;2024-02-23T00:55:12;100663.31;;;19.09
70123;BMP280;57489;37.404;24.920;2024-02-23T01:00:14;100651.72;;;19.05
70123;BMP280;57489;37.404;24.920;2024-02-23T01:05:17;100644.72;;;19.09
70123;BMP280;57489;37.404;24.920;2024-02-23T01:10:20;100642.16;;;19.04
70123;BMP280;57489;37.404;24.920;2024-02-23T01:15:22;100633.44;;;19.04
70123;BMP280;57489;37.404;24.920;2024-02-23T01:20:24;100627.31;;;19.03
70123;BMP280;57489;37.404;24.920;2024-02-23T01:25:28;100624.16;;;19.01
70123;BMP280;57489;37.404;24.920;2024-02-23T01:30:30;100633.03;;;18.97
70123;BMP280;57489;37.404;24.920;2024-02-23T01:35:32;100625.56;;;18.99
70123;BMP280;57489;37.404;24.920;2024-02-23T01:40:35;100635.41;;;18.98
70123;BMP280;57489;37.404;24.920;2024-02-23T01:45:37;100618.69;;;18.98
70123;BMP280;57489;37.404;24.920;2024-02-23T01:50:39;100608.63;;;18.95
70123;BMP280;57489;37.404;24.920;2024-02-23T01:55:44;100616.72;;;18.90
70123;BMP280;57489;37.404;24.920;2024-02-23T02:00:47;100615.94;;;18.89
70123;BMP280;57489;37.404;24.920;2024-02-23T02:05:50;100613.75;;;18.91
70123;BMP280;57489;37.404;24.920;2024-02-23T02:10:54;100614.94;;;18.85
70123;BMP280;57489;37.404;24.920;2024-02-23T02:16:00;100615.94;;;18.89
70123;BMP280;57489;37.404;24.920;2024-02-23T02:21:03;100618.69;;;18.84
70123;BMP280;57489;37.404;24.920;2024-02-23T02:26:06;100614.16;;;18.84
70123;BMP280;57489;37.404;24.920;2024-02-23T02:31:08;100615.38;;;18.78
70123;BMP280;57489;37.404;24.920;2024-02-23T02:36:10;100618.81;;;18.79
70123;BMP280;57489;37.404;24.920;2024-02-23T02:41:16;100621.47;;;18.79
70123;BMP280;57489;37.404;24.920;2024-02-23T02:46:19;100627.38;;;18.76
70123;BMP280;57489;37.404;24.920;2024-02-23T02:51:22;100623.63;;;18.77
70123;BMP280;57489;37.404;24.920;2024-02-23T02:56:25;100627.38;;;18.76
70123;BMP280;57489;37.404;24.920;2024-02-23T03:01:27;100631.69;;;18.72
70123;BMP280;57489;37.404;24.920;2024-02-23T03:06:29;100632.22;;;18.74
70123;BMP280;57489;37.404;24.920;2024-02-23T03:11:32;100642.34;;;18.72
70123;BMP280;57489;37.404;24.920;2024-02-23T03:16:34;100634.66;;;18.70
70123;BMP280;57489;37.404;24.920;2024-02-23T03:21:38;100631.50;;;18.68
70123;BMP280;57489;37.404;24.920;2024-02-23T03:26:41;100632.31;;;18.69
70123;BMP280;57489;37.404;24.920;2024-02-23T03:31:43;100633.38;;;18.68
70123;BMP280;57489;37.404;24.920;2024-02-23T03:36:45;100636.81;;;18.68
70123;BMP280;57489;37.404;24.920;2024-02-23T03:41:48;100638.69;;;18.68
70123;BMP280;57489;37.404;24.920;2024-02-23T03:46:50;100630.72;;;18.68
70123;BMP280;57489;37.404;24.920;2024-02-23T03:51:52;100619.09;;;18.64
70123;BMP280;57489;37.404;24.920;2024-02-23T03:56:55;100629.75;;;18.64
70123;BMP280;57489;37.404;24.920;2024-02-23T04:01:57;100626.19;;;18.68
70123;BMP280;57489;37.404;24.920;2024-02-23T04:06:59;100630.81;;;18.63
70123;BMP280;57489;37.404;24.920;2024-02-23T04:12:03;100635.06;;;18.64
70123;BMP280;57489;37.404;24.920;2024-02-23T04:17:06;100630.81;;;18.63
70123;BMP280;57489;37.404;24.920;2024-02-23T04:22:09;100631.13;;;18.61
70123;BMP280;57489;37.404;24.920;2024-02-23T04:27:12;100637.25;;;18.62
70123;BMP280;57489;37.404;24.920;2024-02-23T04:32:14;100642.94;;;18.55
70123;BMP280;57489;37.404;24.920;2024-02-23T04:37:16;100641.59;;;18.57
70123;BMP280;57489;37.404;24.920;2024-02-23T04:42:19;100632.03;;;18.56
70123;BMP280;57489;37.404;24.920;2024-02-23T04:47:21;100636.28;;;18.57
70123;BMP280;57489;37.404;24.920;2024-02-23T04:52:23;100636.38;;;18.52
70123;BMP280;57489;37.404;24.920;2024-02-23T04:57:27;100644.81;;;18.54
70123;BMP280;57489;37.404;24.920;2024-02-23T05:02:28;100653.75;;;18.58
70123;BMP280;57489;37.404;24.920;2024-02-23T05:07:35;100652.81;;;18.54
70123;BMP280;57489;37.404;24.920;2024-02-23T05:12:38;100674.06;;;18.54
70123;BMP280;57489;37.404;24.920;2024-02-23T05:17:41;100674.84;;;18.55
70123;BMP280;57489;37.404;24.920;2024-02-23T05:22:42;100667.38;;;18.57
70123;BMP280;57489;37.404;24.920;2024-02-23T05:27:46;100671.00;;;18.61
70123;BMP280;57489;37.404;24.920;2024-02-23T05:32:48;100672.88;;;18.61
70123;BMP280;57489;37.404;24.920;2024-02-23T05:37:50;100667.75;;;18.64
70123;BMP280;57489;37.404;24.920;2024-02-23T05:42:53;100680.03;;;18.88
70123;BMP280;57489;37.404;24.920;2024-02-23T05:47:56;100667.59;;;19.10
70123;BMP280;57489;37.404;24.920;2024-02-23T05:52:58;100668.88;;;19.13
70123;BMP280;57489;37.404;24.920;2024-02-23T05:58:01;100677.72;;;19.22
70123;BMP280;57489;37.404;24.920;2024-02-23T06:03:04;100672.34;;;19.36
70123;BMP280;57489;37.404;24.920;2024-02-23T06:08:06;100694.97;;;19.47
70123;BMP280;57489;37.404;24.920;2024-02-23T06:13:10;100690.63;;;19.51
70123;BMP280;57489;37.404;24.920;2024-02-23T06:18:12;100688.78;;;19.83
70123;BMP280;57489;37.404;24.920;2024-02-23T06:23:14;100691.66;;;19.73
70123;BMP280;57489;37.404;24.920;2024-02-23T06:28:17;100697.75;;;19.42
70123;BMP280;57489;37.404;24.920;2024-02-23T06:33:19;100701.72;;;19.31
70123;BMP280;57489;37.404;24.920;2024-02-23T06:38:21;100704.50;;;19.26
70123;BMP280;57489;37.404;24.920;2024-02-23T06:43:24;100708.84;;;19.22
70123;BMP280;57489;37.404;24.920;2024-02-23T06:48:26;100709.19;;;19.29
70123;BMP280;57489;37.404;24.920;2024-02-23T06:53:28;100711.19;;;19.23
70123;BMP280;57489;37.404;24.920;2024-02-23T06:58:32;100703.69;;;19.39
70123;BMP280;57489;37.404;24.920;2024-02-23T07:03:34;100712.75;;;19.24
70123;BMP280;57489;37.404;24.920;2024-02-23T07:08:37;100716.41;;;19.15
70123;BMP280;57489;37.404;24.920;2024-02-23T07:13:42;100720.69;;;19.16
70123;BMP280;57489;37.404;24.920;2024-02-23T07:18:44;100724.78;;;19.22
70123;BMP280;57489;37.404;24.920;2024-02-23T07:23:46;100722.47;;;19.43
70123;BMP280;57489;37.404;24.920;2024-02-23T07:28:50;100721.03;;;19.23
70123;BMP280;57489;37.404;24.920;2024-02-23T07:33:54;100717.00;;;19.25
70123;BMP280;57489;37.404;24.920;2024-02-23T07:38:56;100726.50;;;19.18
70123;BMP280;57489;37.404;24.920;2024-02-23T07:44:00;100722.09;;;19.35
70123;BMP280;57489;37.404;24.920;2024-02-23T07:49:02;100740.19;;;19.25
70123;BMP280;57489;37.404;24.920;2024-02-23T07:54:04;100731.47;;;19.33
70123;BMP280;57489;37.404;24.920;2024-02-23T07:59:08;100735.78;;;19.43
70123;BMP280;57489;37.404;24.920;2024-02-23T08:04:10;100738.16;;;19.44
70123;BMP280;57489;37.404;24.920;2024-02-23T08:09:13;100731.88;;;19.40
70123;BMP280;57489;37.404;24.920;2024-02-23T08:14:17;100729.22;;;19.62
70123;BMP280;57489;37.404;24.920;2024-02-23T08:19:19;100730.47;;;19.87
70123;BMP280;57489;37.404;24.920;2024-02-23T08:24:21;100737.88;;;19.99
70123;BMP280;57489;37.404;24.920;2024-02-23T08:29:25;100737.28;;;19.71
70123;BMP280;57489;37.404;24.920;2024-02-23T08:34:27;100743.63;;;19.84
70123;BMP280;57489;37.404;24.920;2024-02-23T08:39:29;100747.97;;;19.80
70123;BMP280;57489;37.404;24.920;2024-02-23T08:44:32;100750.31;;;20.04
70123;BMP280;57489;37.404;24.920;2024-02-23T08:49:34;100750.97;;;20.09
70123;BMP280;57489;37.404;24.920;2024-02-23T08:54:36;100750.94;;;20.32
70123;BMP280;57489;37.404;24.920;2024-02-23T08:59:41;100757.78;;;19.93
70123;BMP280;57489;37.404;24.920;2024-02-23T09:04:43;100757.56;;;19.89
70123;BMP280;57489;37.404;24.920;2024-02-23T09:09:46;100754.16;;;19.89
70123;BMP280;57489;37.404;24.920;2024-02-23T09:14:50;100753.41;;;19.97
70123;BMP280;57489;37.404;24.920;2024-02-23T09:19:52;100763.59;;;19.95
70123;BMP280;57489;37.404;24.920;2024-02-23T09:24:54;100776.03;;;19.86
70123;BMP280;57489;37.404;24.920;2024-02-23T09:29:58;100779.53;;;19.73
70123;BMP280;57489;37.404;24.920;2024-02-23T09:35:00;100765.50;;;19.81
70123;BMP280;57489;37.404;24.920;2024-02-23T09:40:03;100758.88;;;20.23
70123;BMP280;57489;37.404;24.920;2024-02-23T09:45:08;100762.72;;;20.08
70123;BMP280;57489;37.404;24.920;2024-02-23T09:50:13;100767.88;;;20.36
70123;BMP280;57489;37.404;24.920;2024-02-23T09:55:15;100772.81;;;20.51
70123;BMP280;57489;37.404;24.920;2024-02-23T10:00:18;100764.75;;;20.74
70123;BMP280;57489;37.404;24.920;2024-02-23T10:05:23;100768.75;;;20.54
70123;BMP280;57489;37.404;24.920;2024-02-23T10:10:32;100754.59;;;20.45
70123;BMP280;57489;37.404;24.920;2024-02-23T10:15:38;100757.63;;;20.60
70123;BMP280;57489;37.404;24.920;2024-02-23T10:20:40;100760.66;;;20.76
70123;BMP280;57489;37.404;24.920;2024-02-23T10:25:42;100756.00;;;20.42
70123;BMP280;57489;37.404;24.920;2024-02-23T10:30:48;100744.09;;;20.48
70123;BMP280;57489;37.404;24.920;2024-02-23T10:35:54;100746.03;;;20.25
70123;BMP280;57489;37.404;24.920;2024-02-23T10:40:58;100738.53;;;20.27
70123;BMP280;57489;37.404;24.920;2024-02-23T10:46:01;100736.16;;;20.26
70123;BMP280;57489;37.404;24.920;2024-02-23T10:51:10;100743.16;;;20.13
70123;BMP280;57489;37.404;24.920;2024-02-23T10:56:13;100739.66;;;20.04
70123;BMP280;57489;37.404;24.920;2024-02-23T11:01:18;100729.00;;;20.04
70123;BMP280;57489;37.404;24.920;2024-02-23T11:06:27;100731.00;;;19.98
70123;BMP280;57489;37.404;24.920;2024-02-23T11:11:32;100732.22;;;19.92
70123;BMP280;57489;37.404;24.920;2024-02-23T11:16:38;100720.53;;;20.02
70123;BMP280;57489;37.404;24.920;2024-02-23T11:21:42;100720.03;;;20.31
70123;BMP280;57489;37.404;24.920;2024-02-23T11:26:48;100710.22;;;20.40
70123;BMP280;57489;37.404;24.920;2024-02-23T11:31:51;100705.69;;;20.49
70123;BMP280;57489;37.404;24.920;2024-02-23T11:36:56;100713.34;;;20.42
70123;BMP280;57489;37.404;24.920;2024-02-23T11:42:00;100719.06;;;20.66
70123;BMP280;57489;37.404;24.920;2024-02-23T11:47:04;100710.88;;;20.54
70123;BMP280;57489;37.404;24.920;2024-02-23T11:52:06;100710.25;;;20.57
70123;BMP280;57489;37.404;24.920;2024-02-23T11:57:08;100706.66;;;20.62
70123;BMP280;57489;37.404;24.920;2024-02-23T12:02:12;100691.00;;;20.69
70123;BMP280;57489;37.404;24.920;2024-02-23T12:07:15;100701.34;;;20.62
70123;BMP280;57489;37.404;24.920;2024-02-23T12:12:17;100690.78;;;20.48
70123;BMP280;57489;37.404;24.920;2024-02-23T12:17:21;100691.59;;;20.49
70123;BMP280;57489;37.404;24.920;2024-02-23T12:22:24;100686.53;;;20.47
70123;BMP280;57489;37.404;24.920;2024-02-23T12:27:26;100684.50;;;20.44
70123;BMP280;57489;37.404;24.920;2024-02-23T12:32:31;100686.13;;;20.62
70123;BMP280;57489;37.404;24.920;2024-02-23T12:37:35;100683.59;;;20.57
70123;BMP280;57489;37.404;24.920;2024-02-23T12:42:37;100687.50;;;20.60
70123;BMP280;57489;37.404;24.920;2024-02-23T12:47:41;100676.06;;;20.59
70123;BMP280;57489;37.404;24.920;2024-02-23T12:52:42;100672.13;;;20.48
70123;BMP280;57489;37.404;24.920;2024-02-23T12:57:45;100662.44;;;20.61
70123;BMP280;57489;37.404;24.920;2024-02-23T13:02:49;100665.06;;;20.52
70123;BMP280;57489;37.404;24.920;2024-02-23T13:07:51;100665.06;;;20.52
70123;BMP280;57489;37.404;24.920;2024-02-23T13:12:53;100652.66;;;20.48
70123;BMP280;57489;37.404;24.920;2024-02-23T13:17:56;100655.03;;;20.49
70123;BMP280;57489;37.404;24.920;2024-02-23T13:22:58;100640.25;;;20.43
70123;BMP280;57489;37.404;24.920;2024-02-23T13:28:00;100646.69;;;20.51
70123;BMP280;57489;37.404;24.920;2024-02-23T13:33:04;100649.81;;;20.35
70123;BMP280;57489;37.404;24.920;2024-02-23T13:38:06;100640.25;;;20.43
70123;BMP280;57489;37.404;24.920;2024-02-23T13:43:09;100643.22;;;20.33
70123;BMP280;57489;37.404;24.920;2024-02-23T13:48:13;100642.75;;;20.31
70123;BMP280;57489;37.404;24.920;2024-02-23T13:53:15;100641.97;;;20.30
70123;BMP280;57489;37.404;24.920;2024-02-23T13:58:17;100638.47;;;20.21
70123;BMP280;57489;37.404;24.920;2024-02-23T14:03:21;100635.19;;;20.15
70123;BMP280;57489;37.404;24.920;2024-02-23T14:08:23;100635.00;;;20.12
70123;BMP280;57489;37.404;24.920;2024-02-23T14:13:25;100642.19;;;20.11
70123;BMP280;57489;37.404;24.920;2024-02-23T14:18:28;100634.19;;;20.11
70123;BMP280;57489;37.404;24.920;2024-02-23T14:23:32;100631.69;;;20.06
70123;BMP280;57489;37.404;24.920;2024-02-23T14:28:34;100633.53;;;19.97
70123;BMP280;57489;37.404;24.920;2024-02-23T14:33:37;100639.84;;;20.01
70123;BMP280;57489;37.404;24.920;2024-02-23T14:38:39;100630.41;;;19.95
70123;BMP280;57489;37.404;24.920;2024-02-23T14:43:41;100632.69;;;20.19
70123;BMP280;57489;37.404;24.920;2024-02-23T14:48:45;100637.97;;;20.76
70123;BMP280;57489;37.404;24.920;2024-02-23T14:53:48;100628.66;;;21.43
70123;BMP280;57489;37.404;24.920;2024-02-23T14:58:50;100639.06;;;21.83
70123;BMP280;57489;37.404;24.920;2024-02-23T15:03:54;100630.03;;;21.96
70123;BMP280;57489;37.404;24.920;2024-02-23T15:08:56;100634.31;;;21.97
70123;BMP280;57489;37.404;24.920;2024-02-23T15:13:57;100632.75;;;21.87
70123;BMP280;57489;37.404;24.920;2024-02-23T15:19:02;100627.63;;;21.73
70123;BMP280;57489;37.404;24.920;2024-02-23T15:24:05;100625.63;;;21.62
70123;BMP280;57489;37.404;24.920;2024-02-23T15:29:07;100629.13;;;21.54
70123;BMP280;57489;37.404;24.920;2024-02-23T15:34:10;100640.28;;;21.47
70123;BMP280;57489;37.404;24.920;2024-02-23T15:39:12;100642.47;;;21.45
70123;BMP280;57489;37.404;24.920;2024-02-23T15:44:14;100639.19;;;21.39
70123;BMP280;57489;37.404;24.920;2024-02-23T15:49:17;100639.06;;;21.36
70123;BMP280;57489;37.404;24.920;2024-02-23T15:54:19;100644.41;;;21.27
70123;BMP280;57489;37.404;24.920;2024-02-23T15:59:21;100635.78;;;21.21
70123;BMP280;57489;37.404;24.920;2024-02-23T16:04:25;100640.34;;;20.95
70123;BMP280;57489;37.404;24.920;2024-02-23T16:09:27;100641.59;;;20.89
70123;BMP280;57489;37.404;24.920;2024-02-23T16:14:29;100645.34;;;20.88
70123;BMP280;57489;37.404;24.920;2024-02-23T16:19:32;100650.38;;;20.81
70123;BMP280;57489;37.404;24.920;2024-02-23T16:24:34;100658.69;;;20.71
70123;BMP280;57489;37.404;24.920;2024-02-23T16:29:37;100656.63;;;20.67
70123;BMP280;57489;37.404;24.920;2024-02-23T16:34:40;100665.75;;;20.66
70123;BMP280;57489;37.404;24.920;2024-02-23T16:39:42;100667.13;;;20.64
70123;BMP280;57489;37.404;24.920;2024-02-23T16:44:44;100675.47;;;20.62
70123;BMP280;57489;37.404;24.920;2024-02-23T16:49:47;100681.22;;;20.47
70123;BMP280;57489;37.404;24.920;2024-02-23T16:54:49;100678.53;;;20.47
70123;BMP280;57489;37.404;24.920;2024-02-23T16:59:51;100688.53;;;20.33
70123;BMP280;57489;37.404;24.920;2024-02-23T17:04:55;100702.59;;;20.25
70123;BMP280;57489;37.404;24.920;2024-02-23T17:10:00;100699.28;;;20.19
70123;BMP280;57489;37.404;24.920;2024-02-23T17:15:03;100708.22;;;20.14
70123;BMP280;57489;37.404;24.920;2024-02-23T17:20:08;100712.59;;;20.10
70123;BMP280;57489;37.404;24.920;2024-02-23T17:25:10;100721.78;;;20.04
70123;BMP280;57489;37.404;24.920;2024-02-23T17:30:12;100721.91;;;19.99
70123;BMP280;57489;37.404;24.920;2024-02-23T17:35:15;100722.53;;;19.96
70123;BMP280;57489;37.404;24.920;2024-02-23T17:40:18;100721.13;;;19.99
70123;BMP280;57489;37.404;24.920;2024-02-23T17:45:20;100729.13;;;19.99
70123;BMP280;57489;37.404;24.920;2024-02-23T17:50:25;100731.50;;;20.00
70123;BMP280;57489;37.404;24.920;2024-02-23T17:55:27;100725.66;;;19.98
70123;BMP280;57489;37.404;24.920;2024-02-23T18:00:29;100726.75;;;19.97
70123;BMP280;57489;37.404;24.920;2024-02-23T18:05:33;100734.19;;;20.31
70123;BMP280;57489;37.404;24.920;2024-02-23T18:10:36;100741.88;;;20.41
70123;BMP280;57489;37.404;24.920;2024-02-23T18:15:41;100741.44;;;20.48
70123;BMP280;57489;37.404;24.920;2024-02-23T18:20:45;100740.69;;;20.65
70123;BMP280;57489;37.404;24.920;2024-02-23T18:25:47;100752.91;;;20.57
70123;BMP280;57489;37.404;24.920;2024-02-23T18:30:49;100760.41;;;20.55
70123;BMP280;57489;37.404;24.920;2024-02-23T18:35:52;100754.88;;;20.43
70123;BMP280;57489;37.404;24.920;2024-02-23T18:40:54;100752.78;;;20.54
70123;BMP280;57489;37.404;24.920;2024-02-23T18:45:58;100751.28;;;20.39
70123;BMP280;57489;37.404;24.920;2024-02-23T18:51:02;100756.34;;;20.49
70123;BMP280;57489;37.404;24.920;2024-02-23T18:56:04;100758.31;;;20.75
70123;BMP280;57489;37.404;24.920;2024-02-23T19:01:08;100761.63;;;20.80
70123;BMP280;57489;37.404;24.920;2024-02-23T19:06:13;100773.38;;;20.71
70123;BMP280;57489;37.404;24.920;2024-02-23T19:11:15;100770.94;;;20.60
70123;BMP280;57489;37.404;24.920;2024-02-23T19:16:17;100778.41;;;20.81
70123;BMP280;57489;37.404;24.920;2024-02-23T19:21:21;100776.34;;;20.69
70123;BMP280;57489;37.404;24.920;2024-02-23T19:26:23;100770.16;;;20.60
70123;BMP280;57489;37.404;24.920;2024-02-23T19:31:25;100780.16;;;20.94
70123;BMP280;57489;37.404;24.920;2024-02-23T19:36:29;100777.75;;;20.66
70123;BMP280;57489;37.404;24.920;2024-02-23T19:41:31;100771.09;;;20.55
70123;BMP280;57489;37.404;24.920;2024-02-23T19:46:33;100765.75;;;20.55
70123;BMP280;57489;37.404;24.920;2024-02-23T19:51:39;100776.75;;;20.54
70123;BMP280;57489;37.404;24.920;2024-02-23T19:56:42;100770.84;;;20.34
70123;BMP280;57489;37.404;24.920;2024-02-23T20:01:44;100771.00;;;20.38
70123;BMP280;57489;37.404;24.920;2024-02-23T20:06:47;100758.66;;;20.51
70123;BMP280;57489;37.404;24.920;2024-02-23T20:11:50;100759.78;;;20.41
70123;BMP280;57489;37.404;24.920;2024-02-23T20:16:52;100770.06;;;20.34
70123;BMP280;57489;37.404;24.920;2024-02-23T20:21:56;100760.84;;;20.40
70123;BMP280;57489;37.404;24.920;2024-02-23T20:26:58;100760.00;;;20.31
70123;BMP280;57489;37.404;24.920;2024-02-23T20:32:01;100764.47;;;20.44
70123;BMP280;57489;37.404;24.920;2024-02-23T20:37:07;100762.41;;;20.32
70123;BMP280;57489;37.404;24.920;2024-02-23T20:42:09;100775.78;;;20.41
70123;BMP280;57489;37.404;24.920;2024-02-23T20:47:11;100781.69;;;20.38
70123;BMP280;57489;37.404;24.920;2024-02-23T20:52:14;100789.59;;;20.21
70123;BMP280;57489;37.404;24.920;2024-02-23T20:57:18;100789.88;;;19.88
70123;BMP280;57489;37.404;24.920;2024-02-23T21:02:20;100785.34;;;20.51
70123;BMP280;57489;37.404;24.920;2024-02-23T21:07:24;100777.84;;;20.22
70123;BMP280;57489;37.404;24.920;2024-02-23T21:12:25;100785.88;;;20.61
70123;BMP280;57489;37.404;24.920;2024-02-23T21:17:27;100789.59;;;20.21
70123;BMP280;57489;37.404;24.920;2024-02-23T21:22:31;100792.34;;;20.07
70123;BMP280;57489;37.404;24.920;2024-02-23T21:27:33;100793.72;;;20.04
70123;BMP280;57489;37.404;24.920;2024-02-23T21:32:35;100786.81;;;20.03
70123;BMP280;57489;37.404;24.920;2024-02-23T21:37:38;100792.13;;;20.03
70123;BMP280;57489;37.404;24.920;2024-02-23T21:42:40;100787.19;;;20.10
70123;BMP280;57489;37.404;24.920;2024-02-23T21:47:42;100790.75;;;20.06
70123;BMP280;57489;37.404;24.920;2024-02-23T21:52:46;100789.22;;;20.13
70123;BMP280;57489;37.404;24.920;2024-02-23T21:57:48;100789.72;;;20.15
70123;BMP280;57489;37.404;24.920;2024-02-23T22:02:49;100786.09;;;19.89
70123;BMP280;57489;37.404;24.920;2024-02-23T22:07:53;100798.91;;;19.87
70123;BMP280;57489;37.404;24.920;2024-02-23T22:12:55;100793.25;;;19.80
70123;BMP280;57489;37.404;24.920;2024-02-23T22:17:57;100797.78;;;19.79
70123;BMP280;57489;37.404;24.920;2024-02-23T22:23:00;100799.28;;;19.72
70123;BMP280;57489;37.404;24.920;2024-02-23T22:28:03;100798.63;;;19.66
70123;BMP280;57489;37.404;24.920;2024-02-23T22:33:05;100803.75;;;19.62
70123;BMP280;57489;37.404;24.920;2024-02-23T22:38:09;100802.97;;;19.62
70123;BMP280;57489;37.404;24.920;2024-02-23T22:43:11;100805.22;;;19.55
70123;BMP280;57489;37.404;24.920;2024-02-23T22:48:13;100821.53;;;19.53
70123;BMP280;57489;37.404;24.920;2024-02-23T22:53:17;100812.06;;;19.47
70123;BMP280;57489;37.404;24.920;2024-02-23T22:58:18;100818.97;;;19.48
70123;BMP280;57489;37.404;24.920;2024-02-23T23:03:20;100815.25;;;19.49
70123;BMP280;57489;37.404;24.920;2024-02-23T23:08:24;100821.72;;;19.43
70123;BMP280;57489;37.404;24.920;2024-02-23T23:13:27;100814.84;;;19.42
70123;BMP280;57489;37.404;24.920;2024-02-23T23:18:29;100814.13;;;19.36
70123;BMP280;57489;37.404;24.920;2024-02-23T23:23:36;100817.59;;;19.37
70123;BMP280;57489;37.404;24.920;2024-02-23T23:28:38;100815.84;;;19.32
70123;BMP280;57489;37.404;24.920;2024-02-23T23:33:40;100818.81;;;19.31
70123;BMP280;57489;37.404;24.920;2024-02-23T23:38:43;100805.97;;;19.33
70123;BMP280;57489;37.404;24.920;2024-02-23T23:43:45;100800.47;;;19.29
70123;BMP280;57489;37.404;24.920;2024-02-23T23:48:48;100800.28;;;19.26
70123;BMP280;57489;37.404;24.920;2024-02-23T23:53:51;100800.28;;;19.26
70123;BMP280;57489;37.404;24.920;2024-02-23T23:58:56;100796.03;;;19.25
